createdAt,value
2018-09-02T00:01:25.158Z,26.97
2018-09-02T00:04:36.743Z,27.70
2018-09-02T00:07:49.853Z,27.65
2018-09-02T00:11:01.184Z,26.30
2018-09-02T00:14:12.422Z,26.85
2018-09-02T00:17:23.633Z,26.12
2018-09-02T00:20:35.444Z,27.17
2018-09-02T00:23:47.365Z,23.18
2018-09-02T00:26:59.489Z,30.77
2018-09-02T00:30:11.831Z,22.82
2018-09-02T00:33:23.935Z,24.18
2018-09-02T00:36:35.697Z,25.55
2018-09-02T00:39:47.637Z,20.72
2018-09-02T00:42:58.905Z,23.83
2018-09-02T00:46:11.204Z,20.60
2018-09-02T00:49:22.544Z,20.80
2018-09-02T00:52:34.745Z,21.70
2018-09-02T00:55:46.690Z,26.65
2018-09-02T00:58:58.514Z,20.35
2018-09-02T01:02:10.371Z,23.95
2018-09-02T01:05:22.357Z,26.73
2018-09-02T01:08:34.292Z,22.22
2018-09-02T01:11:46.097Z,23.95
2018-09-02T01:14:57.279Z,20.92
2018-09-02T01:18:08.353Z,19.37
2018-09-02T01:21:19.846Z,22.17
2018-09-02T01:24:31.957Z,21.57
2018-09-02T01:27:44.078Z,20.72
2018-09-02T01:30:55.086Z,22.05
2018-09-02T01:34:07.175Z,21.82
2018-09-02T01:37:19.387Z,21.23
2018-09-02T01:40:32.086Z,20.82
2018-09-02T01:43:43.622Z,22.32
2018-09-02T01:46:55.777Z,21.05
2018-09-02T01:50:07.829Z,19.90
2018-09-02T01:53:19.972Z,19.23
2018-09-02T01:56:31.908Z,19.67
2018-09-02T01:59:43.905Z,18.00
2018-09-02T02:02:55.538Z,20.95
2018-09-02T02:06:07.237Z,23.42
2018-09-02T02:09:18.601Z,22.93
2018-09-02T02:12:30.632Z,20.72
2018-09-02T02:15:41.944Z,22.58
2018-09-02T02:18:53.408Z,19.92
2018-09-02T02:22:04.786Z,23.20
2018-09-02T02:25:16.554Z,24.23
2018-09-02T02:28:28.725Z,22.32
2018-09-02T02:31:39.799Z,24.90
2018-09-02T02:34:51.503Z,23.35
2018-09-02T02:38:03.593Z,19.17
2018-09-02T02:41:15.850Z,20.82
2018-09-02T02:44:27.723Z,20.10
2018-09-02T02:47:39.903Z,20.60
2018-09-02T02:50:51.608Z,20.60
2018-09-02T02:54:03.061Z,21.87
2018-09-02T02:57:15.086Z,22.58
2018-09-02T03:00:26.424Z,23.70
2018-09-02T03:03:37.918Z,23.55
2018-09-02T03:06:50.041Z,23.47
2018-09-02T03:10:02.095Z,25.95
2018-09-02T03:13:13.411Z,24.43
2018-09-02T03:16:25.195Z,27.60
2018-09-02T03:19:37.135Z,26.15
2018-09-02T03:22:49.123Z,23.32
2018-09-02T03:26:00.959Z,23.40
2018-09-02T03:29:12.930Z,21.37
2018-09-02T03:32:24.753Z,24.12
2018-09-02T03:35:36.722Z,28.07
2018-09-02T03:38:48.044Z,29.90
2018-09-02T03:42:00.291Z,23.07
2018-09-02T03:45:12.397Z,21.42
2018-09-02T03:48:24.464Z,25.27
2018-09-02T03:51:36.676Z,25.80
2018-09-02T03:54:47.862Z,28.77
2018-09-02T03:57:59.708Z,26.48
2018-09-02T04:01:11.481Z,27.60
2018-09-02T04:04:24.173Z,25.95
2018-09-02T04:07:35.861Z,30.45
2018-09-02T04:10:47.077Z,31.07
2018-09-02T04:13:58.554Z,22.22
2018-09-02T04:17:10.027Z,29.63
2018-09-02T04:20:26.279Z,26.40
2018-09-02T04:23:37.560Z,27.65
2018-09-02T04:26:49.241Z,32.98
2018-09-02T04:30:00.847Z,25.85
2018-09-02T04:33:12.180Z,26.45
2018-09-02T04:36:24.492Z,25.17
2018-09-02T04:39:36.579Z,26.77
2018-09-02T04:42:47.974Z,28.10
2018-09-02T04:46:00.103Z,29.35
2018-09-02T04:49:12.303Z,27.48
2018-09-02T04:52:23.984Z,26.97
2018-09-02T04:55:35.676Z,27.22
2018-09-02T04:58:46.867Z,36.30
2018-09-02T05:01:58.290Z,27.85
2018-09-02T05:05:09.795Z,26.52
2018-09-02T05:08:21.410Z,31.73
2018-09-02T05:11:32.884Z,30.72
2018-09-02T05:14:44.761Z,27.58
2018-09-02T05:17:56.691Z,35.05
2018-09-02T05:21:09.534Z,33.92
2018-09-02T05:24:21.672Z,29.60
2018-09-02T05:27:33.760Z,24.10
2018-09-02T05:30:45.767Z,29.10
2018-09-02T05:33:57.222Z,28.12
2018-09-02T05:37:09.093Z,28.95
2018-09-02T05:40:20.531Z,26.97
2018-09-02T05:43:31.713Z,27.70
2018-09-02T05:46:43.197Z,24.67
2018-09-02T05:49:55.403Z,29.35
2018-09-02T05:53:07.057Z,25.72
2018-09-02T05:56:18.566Z,22.85
2018-09-02T05:59:30.016Z,26.50
2018-09-02T06:02:42.202Z,20.85
2018-09-02T06:05:54.265Z,25.10
2018-09-02T06:09:08.355Z,20.60
2018-09-02T06:12:20.120Z,20.10
2018-09-02T06:15:32.019Z,23.02
2018-09-02T06:18:44.433Z,18.87
2018-09-02T06:21:56.457Z,16.73
2018-09-02T06:25:08.774Z,18.55
2018-09-02T06:28:20.811Z,17.17
2018-09-02T06:31:33.612Z,21.30
2018-09-02T06:34:45.087Z,17.85
2018-09-02T06:37:57.049Z,17.65
2018-09-02T06:41:08.817Z,20.40
2018-09-02T06:44:20.055Z,18.50
2018-09-02T06:47:31.724Z,17.65
2018-09-02T06:50:43.146Z,17.65
2018-09-02T06:53:54.795Z,16.97
2018-09-02T06:57:07.240Z,17.62
2018-09-02T07:00:18.604Z,17.70
2018-09-02T07:03:30.522Z,16.27
2018-09-02T07:06:42.335Z,16.40
2018-09-02T07:09:54.584Z,17.23
2018-09-02T07:13:06.499Z,17.57
2018-09-02T07:16:18.300Z,18.50
2018-09-02T07:19:30.129Z,18.48
2018-09-02T07:22:41.935Z,16.95
2018-09-02T07:25:53.779Z,17.30
2018-09-02T07:29:05.209Z,20.10
2018-09-02T07:32:17.133Z,17.27
2018-09-02T07:35:28.542Z,20.57
2018-09-02T07:38:40.483Z,18.62
2018-09-02T07:41:51.990Z,18.10
2018-09-02T07:45:04.134Z,16.97
2018-09-02T07:48:15.377Z,17.23
2018-09-02T07:51:27.355Z,18.85
2018-09-02T07:54:39.237Z,17.90
2018-09-02T07:57:51.186Z,17.00
2018-09-02T08:01:03.472Z,16.05
2018-09-02T08:04:15.271Z,20.60
2018-09-02T08:07:27.443Z,19.10
2018-09-02T08:10:39.538Z,23.07
2018-09-02T08:13:51.341Z,17.87
2018-09-02T08:17:02.614Z,16.32
2018-09-02T08:20:14.772Z,20.68
2018-09-02T08:23:26.836Z,19.70
2018-09-02T08:26:38.635Z,24.75
2018-09-02T08:29:50.330Z,18.37
2018-09-02T08:33:02.334Z,23.77
2018-09-02T08:36:15.172Z,19.27
2018-09-02T08:39:26.941Z,24.95
2018-09-02T08:42:38.129Z,21.65
2018-09-02T08:45:50.061Z,21.70
2018-09-02T08:49:01.453Z,24.07
2018-09-02T08:52:13.024Z,19.85
2018-09-02T08:55:24.546Z,20.02
2018-09-02T08:58:36.363Z,25.60
2018-09-02T09:01:47.674Z,19.45
2018-09-02T09:05:00.433Z,22.77
2018-09-02T09:08:12.622Z,17.10
2018-09-02T09:11:24.832Z,18.07
2018-09-02T09:14:37.012Z,20.75
2018-09-02T09:17:48.405Z,19.37
2018-09-02T09:21:00.144Z,19.30
2018-09-02T09:24:11.386Z,17.62
2018-09-02T09:27:23.182Z,16.15
2018-09-02T09:30:35.249Z,17.42
2018-09-02T09:33:46.890Z,18.35
2018-09-02T09:36:58.809Z,17.25
2018-09-02T09:40:10.787Z,18.30
2018-09-02T09:43:22.411Z,16.95
2018-09-02T09:46:34.433Z,19.73
2018-09-02T09:49:45.720Z,18.25
2018-09-02T09:52:57.917Z,16.25
2018-09-02T09:56:09.625Z,17.65
2018-09-02T09:59:22.875Z,19.90
2018-09-02T10:02:34.032Z,18.05
2018-09-02T10:05:45.750Z,20.25
2018-09-02T10:08:57.142Z,16.65
2018-09-02T10:12:08.989Z,16.40
2018-09-02T10:15:21.310Z,21.02
2018-09-02T10:18:32.793Z,18.40
2018-09-02T10:21:43.971Z,17.73
2018-09-02T10:24:56.142Z,20.97
2018-09-02T10:28:08.117Z,18.05
2018-09-02T10:31:20.142Z,20.08
2018-09-02T10:34:32.105Z,19.65
2018-09-02T10:37:43.770Z,19.00
2018-09-02T10:40:55.901Z,19.48
2018-09-02T10:44:07.529Z,19.90
2018-09-02T10:47:19.520Z,20.45
2018-09-02T10:50:31.638Z,24.45
2018-09-02T10:53:45.773Z,21.37
2018-09-02T10:56:57.912Z,24.25
2018-09-02T11:00:11.786Z,22.90
2018-09-02T11:03:23.089Z,22.27
2018-09-02T11:06:35.032Z,22.25
2018-09-02T11:09:46.797Z,28.45
2018-09-02T11:12:58.487Z,21.42
2018-09-02T11:16:10.529Z,22.82
2018-09-02T11:19:22.286Z,25.97
2018-09-02T11:22:34.296Z,23.80
2018-09-02T11:25:45.918Z,20.60
2018-09-02T11:28:57.425Z,25.60
2018-09-02T11:32:09.463Z,25.30
2018-09-02T11:35:20.894Z,22.10
2018-09-02T11:38:32.806Z,23.80
2018-09-02T11:41:44.874Z,27.98
2018-09-02T11:44:56.886Z,24.72
2018-09-02T11:48:08.394Z,27.52
2018-09-02T11:51:19.561Z,28.40
2018-09-02T11:54:31.093Z,26.48
2018-09-02T11:57:43.020Z,28.47
2018-09-02T12:00:54.914Z,29.23
2018-09-02T12:04:06.841Z,26.00
2018-09-02T12:07:18.329Z,31.93
2018-09-02T12:10:30.187Z,29.48
2018-09-02T12:13:41.327Z,27.48
2018-09-02T12:16:52.459Z,31.60
2018-09-02T12:20:03.861Z,29.23
2018-09-02T12:23:15.809Z,36.58
2018-09-02T12:26:27.042Z,32.13
2018-09-02T12:29:38.224Z,36.93
2018-09-02T12:32:49.419Z,31.17
2018-09-02T12:36:01.117Z,32.63
2018-09-02T12:39:12.336Z,33.02
2018-09-02T12:42:24.056Z,32.23
2018-09-02T12:45:35.999Z,33.38
2018-09-02T12:48:47.803Z,31.68
2018-09-02T12:51:59.686Z,31.85
2018-09-02T12:55:12.298Z,51.92
2018-09-02T12:58:24.891Z,35.68
2018-09-02T13:01:36.449Z,39.48
2018-09-02T13:04:48.439Z,39.60
2018-09-02T13:07:59.625Z,40.28
2018-09-02T13:11:10.820Z,40.60
2018-09-02T13:14:22.920Z,34.70
2018-09-02T13:17:35.517Z,41.90
2018-09-02T13:20:47.047Z,35.50
2018-09-02T13:23:58.938Z,39.63
2018-09-02T13:27:10.451Z,37.50
2018-09-02T13:30:21.720Z,33.15
2018-09-02T13:33:33.691Z,37.70
2018-09-02T13:36:44.810Z,29.80
2018-09-02T13:39:56.924Z,35.33
2018-09-02T13:43:08.407Z,46.20
2018-09-02T13:46:20.252Z,50.83
2018-09-02T13:49:31.766Z,36.85
2018-09-02T13:52:43.872Z,40.85
2018-09-02T13:55:56.340Z,40.05
2018-09-02T13:59:08.119Z,38.88
2018-09-02T14:02:19.352Z,40.80
2018-09-02T14:05:30.675Z,41.53
2018-09-02T14:08:42.697Z,36.93
2018-09-02T14:11:54.861Z,43.55
2018-09-02T14:15:07.656Z,42.17
2018-09-02T14:18:19.301Z,38.17
2018-09-02T14:21:31.384Z,40.35
2018-09-02T14:24:43.403Z,42.03
2018-09-02T14:27:55.252Z,37.40
2018-09-02T14:31:06.449Z,40.95
2018-09-02T14:34:18.141Z,42.55
2018-09-02T14:37:30.349Z,40.15
2018-09-02T14:40:43.712Z,49.48
2018-09-02T14:43:56.016Z,52.93
2018-09-02T14:47:08.139Z,37.25
2018-09-02T14:50:20.973Z,55.48
2018-09-02T14:53:32.491Z,47.60
2018-09-02T14:56:44.832Z,53.30
2018-09-02T14:59:56.880Z,45.28
2018-09-02T15:03:08.569Z,54.45
2018-09-02T15:06:20.481Z,50.28
2018-09-02T15:09:32.357Z,58.75
2018-09-02T15:12:43.893Z,43.48
2018-09-02T15:15:55.627Z,54.50
2018-09-02T15:19:07.210Z,52.25
2018-09-02T15:22:20.652Z,43.87
2018-09-02T15:25:32.428Z,42.10
2018-09-02T15:28:43.858Z,43.40
2018-09-02T15:31:55.738Z,48.73
2018-09-02T15:35:16.030Z,37.25
2018-09-02T15:38:32.545Z,49.50
2018-09-02T15:41:44.756Z,46.42
2018-09-02T15:44:56.077Z,52.27
2018-09-02T15:48:09.502Z,35.63
2018-09-02T15:51:21.035Z,48.42
2018-09-02T15:54:36.943Z,48.87
2018-09-02T15:57:51.077Z,51.90
2018-09-02T16:01:05.036Z,40.70
2018-09-02T16:04:18.965Z,44.83
2018-09-02T16:07:32.802Z,56.18
2018-09-02T16:10:45.347Z,39.67
2018-09-02T16:13:57.435Z,46.75
2018-09-02T16:17:10.682Z,40.43
2018-09-02T16:20:23.285Z,42.80
2018-09-02T16:23:35.523Z,35.78
2018-09-02T16:26:47.087Z,43.75
2018-09-02T16:29:59.071Z,40.90
2018-09-02T16:33:10.997Z,42.83
2018-09-02T16:36:22.862Z,49.20
2018-09-02T16:39:34.555Z,36.33
2018-09-02T16:42:46.179Z,38.40
2018-09-02T16:45:58.072Z,46.02
2018-09-02T16:49:10.563Z,43.73
2018-09-02T16:52:22.673Z,43.23
2018-09-02T16:55:34.743Z,56.70
2018-09-02T16:58:47.640Z,44.83
2018-09-02T17:01:58.893Z,47.03
2018-09-02T17:05:15.986Z,41.08
2018-09-02T17:08:28.313Z,52.38
2018-09-02T17:11:40.363Z,48.48
2018-09-02T17:14:52.427Z,43.30
2018-09-02T17:18:03.862Z,41.35
2018-09-02T17:21:15.654Z,41.30
2018-09-02T17:24:26.726Z,53.35
2018-09-02T17:27:37.980Z,41.58
2018-09-02T17:30:49.748Z,45.35
2018-09-02T17:34:00.986Z,40.05
2018-09-02T17:37:12.117Z,42.70
2018-09-02T17:40:24.069Z,52.17
2018-09-02T17:43:35.151Z,40.50
2018-09-02T17:46:46.386Z,43.78
2018-09-02T17:49:58.447Z,41.60
2018-09-02T17:53:10.656Z,43.20
2018-09-02T17:56:23.133Z,42.60
2018-09-02T17:59:35.478Z,52.80
2018-09-02T18:02:47.730Z,47.73
2018-09-02T18:05:59.684Z,48.42
2018-09-02T18:09:12.298Z,48.10
2018-09-02T18:12:23.750Z,45.58
2018-09-02T18:15:35.495Z,48.58
2018-09-02T18:18:47.839Z,45.58
2018-09-02T18:22:00.154Z,49.23
2018-09-02T18:25:12.552Z,45.78
2018-09-02T18:28:28.420Z,46.00
2018-09-02T18:31:40.683Z,58.48
2018-09-02T18:34:52.352Z,47.67
2018-09-02T18:38:03.949Z,42.38
2018-09-02T18:41:15.528Z,47.15
2018-09-02T18:44:26.755Z,41.13
2018-09-02T18:47:39.219Z,47.62
2018-09-02T18:50:50.448Z,46.00
2018-09-02T18:54:02.162Z,37.10
2018-09-02T18:57:13.688Z,47.15
2018-09-02T19:00:26.066Z,47.85
2018-09-02T19:03:37.734Z,44.55
2018-09-02T19:06:48.809Z,35.33
2018-09-02T19:10:00.361Z,39.45
2018-09-02T19:13:12.610Z,39.13
2018-09-02T19:16:23.639Z,46.68
2018-09-02T19:19:35.393Z,44.38
2018-09-02T19:22:46.400Z,41.90
2018-09-02T19:25:58.229Z,39.92
2018-09-02T19:29:10.271Z,37.58
2018-09-02T19:32:22.021Z,45.60
2018-09-02T19:35:34.019Z,52.55
2018-09-02T19:38:45.715Z,46.45
2018-09-02T19:41:57.757Z,49.48
2018-09-02T19:45:10.126Z,46.68
2018-09-02T19:48:21.229Z,55.17
2018-09-02T19:51:32.744Z,40.12
2018-09-02T19:54:44.884Z,51.15
2018-09-02T19:57:57.662Z,46.33
2018-09-02T20:01:09.235Z,41.83
2018-09-02T20:04:20.753Z,42.70
2018-09-02T20:07:33.102Z,43.87
2018-09-02T20:10:44.316Z,41.63
2018-09-02T20:13:56.221Z,47.50
2018-09-02T20:17:07.931Z,38.25
2018-09-02T20:20:19.674Z,41.98
2018-09-02T20:23:31.805Z,42.73
2018-09-02T20:26:42.798Z,51.53
2018-09-02T20:29:54.935Z,38.83
2018-09-02T20:33:05.898Z,42.25
2018-09-02T20:36:17.091Z,38.30
2018-09-02T20:39:28.394Z,48.25
2018-09-02T20:42:39.672Z,52.08
2018-09-02T20:45:51.034Z,49.95
2018-09-02T20:49:02.521Z,45.95
2018-09-02T20:52:13.631Z,40.25
2018-09-02T20:55:24.680Z,49.67
2018-09-02T20:58:36.172Z,50.17
2018-09-02T21:01:47.964Z,47.00
2018-09-02T21:04:59.037Z,54.45
2018-09-02T21:08:10.565Z,50.30
2018-09-02T21:11:22.339Z,52.20
2018-09-02T21:14:34.340Z,48.17
2018-09-02T21:17:45.985Z,43.00
2018-09-02T21:20:57.303Z,58.15
2018-09-02T21:24:08.593Z,64.05
2018-09-02T21:27:20.197Z,41.28
2018-09-02T21:30:31.347Z,49.42
2018-09-02T21:33:42.506Z,55.45
2018-09-02T21:36:53.633Z,56.88
2018-09-02T21:40:06.114Z,50.78
2018-09-02T21:43:17.978Z,48.33
2018-09-02T21:46:29.321Z,51.13
2018-09-02T21:49:40.679Z,55.38
2018-09-02T21:52:52.006Z,44.65
2018-09-02T21:56:03.464Z,43.87
2018-09-02T21:59:14.736Z,54.95
2018-09-02T22:02:26.884Z,43.52
2018-09-02T22:05:38.512Z,54.80
2018-09-02T22:08:50.377Z,50.12
2018-09-02T22:12:02.254Z,56.98
2018-09-02T22:15:14.204Z,44.67
2018-09-02T22:18:25.436Z,45.95
2018-09-02T22:21:36.952Z,59.38
2018-09-02T22:24:48.537Z,55.17
2018-09-02T22:28:00.341Z,59.45
2018-09-02T22:31:12.909Z,60.60
2018-09-02T22:34:24.005Z,43.85
2018-09-02T22:37:35.282Z,62.98
2018-09-02T22:40:46.460Z,49.98
2018-09-02T22:43:58.233Z,53.42
2018-09-02T22:47:10.240Z,65.52
2018-09-02T22:50:22.202Z,45.30
2018-09-02T22:53:34.247Z,52.80
2018-09-02T22:56:45.439Z,52.98
2018-09-02T22:59:56.919Z,63.63
2018-09-02T23:03:08.525Z,57.73
2018-09-02T23:06:20.175Z,64.55
2018-09-02T23:09:31.245Z,60.55
2018-09-02T23:12:42.343Z,52.78
2018-09-02T23:15:53.861Z,63.63
2018-09-02T23:19:05.582Z,52.25
2018-09-02T23:22:18.205Z,61.33
2018-09-02T23:25:29.944Z,56.85
2018-09-02T23:28:41.117Z,51.48
2018-09-02T23:31:53.002Z,61.90
2018-09-02T23:35:04.413Z,58.28
2018-09-02T23:38:15.949Z,58.17
2018-09-02T23:41:27.742Z,52.55
2018-09-02T23:44:39.399Z,50.38
2018-09-02T23:47:50.552Z,50.40
2018-09-02T23:51:01.798Z,57.38
2018-09-02T23:54:12.958Z,48.58
2018-09-02T23:57:24.620Z,49.58
